Date,TemperatureHighF,TemperatureAvgF,TemperatureLowF,DewpointHighF,DewpointAvgF,DewpointLowF,HumidityHigh,HumidityAvg,HumidityLow,PressureMaxIn,PressureMinIn,WindSpeedMaxMPH,WindSpeedAvgMPH,GustSpeedMaxMPH,PrecipitationSumIn
2014-1-1,40,32,22,32,24,18,90,76,45,30.36,29.73,22,1,22,0.06
2014-1-2,42,27,14,28,20,10,88,75,48,30.42,30.02,7,1,7,0.03
2014-1-3,62,46,24,25,18,13,84,37,18,30.02,29.44,19,3,19,0.00
2014-1-4,41,21,12,26,17,8,89,85,42,30.25,29.46,11,2,11,0.01
2014-1-5,13,6,-4,9,1,-10,85,80,75,30.73,30.20,7,1,7,0.00
2014-1-6,32,4,-8,19,-2,-14,81,75,60,30.69,30.27,11,1,11,0.00
2014-1-7,40,32,26,24,18,9,71,57,28,30.27,29.91,9,2,9,0.01
2014-1-8,40,28,18,24,19,12,83,70,48,30.18,29.96,7,1,7,0.02
2014-1-9,46,29,15,26,19,11,88,70,36,30.00,29.64,11,1,11,0.00
2014-1-10,42,33,25,20,11,2,70,40,28,29.87,29.61,21,3,21,0.00
2014-1-11,57,44,26,28,21,14,61,41,23,29.90,29.46,19,2,19,0.00
2014-1-12,52,39,30,28,15,4,72,38,22,29.94,29.37,21,3,21,0.00
2014-1-13,49,41,29,15,10,3,38,29,21,29.93,29.82,22,4,22,0.00
2014-1-14,42,32,24,23,19,13,81,60,32,30.43,29.89,17,2,17,0.00
2014-1-15,54,39,20,27,16,8,82,46,22,30.34,29.90,21,3,21,0.00
2014-1-16,47,37,28,20,15,8,64,41,22,30.31,29.89,14,2,14,0.00
2014-1-17,56,38,23,21,16,11,72,46,19,30.23,29.95,7,2,7,0.00
2014-1-18,56,40,29,20,15,11,59,38,17,30.17,29.96,12,2,12,0.00
2014-1-19,65,47,30,19,10,4,45,24,13,30.04,29.71,14,4,14,0.00
2014-1-20,50,40,28,20,15,4,61,37,16,30.37,29.71,14,2,14,0.00
2014-1-21,63,47,25,18,1,-11,63,21,5,30.32,29.93,20,4,20,0.00
2014-1-22,42,32,20,22,15,8,86,53,33,30.31,29.96,7,1,7,0.00
2014-1-23,21,14,6,17,8,1,86,76,64,30.73,30.29,9,2,9,0.09
2014-1-24,60,39,17,22,11,4,71,35,14,30.49,30.04,12,3,12,0.00
2014-1-25,58,45,32,28,20,8,62,38,21,30.09,29.73,17,3,17,0.00
2014-1-26,57,39,19,26,16,7,70,43,18,30.20,29.57,24,4,24,0.00
2014-1-27,22,17,9,16,11,5,85,77,60,30.42,30.10,11,2,11,0.00
2014-1-28,33,16,7,18,8,2,83,73,35,30.47,30.17,11,2,11,0.04
2014-1-29,54,36,10,30,18,5,82,50,25,30.17,29.22,16,2,16,0.00
2014-1-30,53,40,20,33,27,18,100,64,31,29.70,29.23,18,2,18,0.02
2014-1-31,25,21,17,23,18,14,91,88,83,29.93,29.70,0,0,0,0.04
2014-2-1,25,19,9,22,15,5,92,85,79,30.31,29.86,5,0,5,0.00
2014-2-2,19,12,8,12,7,3,85,81,74,30.33,30.15,6,1,6,0.00
2014-2-3,27,16,2,18,9,-3,87,75,59,30.17,30.02,7,1,7,0.03
2014-2-4,20,10,-6,15,4,-12,85,78,73,30.64,30.02,10,1,10,0.01
2014-2-5,2,-6,-12,-6,-13,-18,75,72,65,30.84,30.64,10,1,10,0.00
2014-2-6,3,-6,-11,-7,-13,-18,74,69,57,30.69,30.30,6,1,6,0.00
2014-2-7,36,11,-8,21,2,-15,75,67,44,30.33,29.86,9,1,9,0.00
2014-2-8,48,31,14,29,19,5,85,60,42,30.17,29.74,13,2,13,0.01
2014-2-9,22,20,19,20,17,15,91,88,86,30.16,29.96,6,0,6,0.10
2014-2-14,33,33,33,27,27,27,80,80,80,29.84,29.84,3,3,4,0.00